createdAt,value
2018-02-23T00:00:36.978Z,6.40
2018-02-23T00:03:07.830Z,7.65
2018-02-23T00:05:38.992Z,6.50
2018-02-23T00:08:07.198Z,6.75
2018-02-23T00:10:38.242Z,6.97
2018-02-23T00:16:00.134Z,7.10
2018-02-23T00:18:27.562Z,9.82
2018-02-23T00:20:55.186Z,7.85
2018-02-23T00:23:28.039Z,7.35
2018-02-23T00:25:56.370Z,7.97
2018-02-23T00:28:27.398Z,9.05
2018-02-23T00:30:57.854Z,7.53
2018-02-23T00:33:31.623Z,7.03
2018-02-23T00:36:04.361Z,6.62
2018-02-23T00:38:34.792Z,8.18
2018-02-23T00:41:06.119Z,6.80
2018-02-23T00:43:37.370Z,5.80
2018-02-23T00:46:08.361Z,5.97
2018-02-23T00:48:37.696Z,6.00
2018-02-23T00:51:12.347Z,5.85
2018-02-23T00:53:39.809Z,5.75
2018-02-23T00:56:07.269Z,5.62
2018-02-23T00:58:34.766Z,7.15
2018-02-23T01:01:02.255Z,6.25
2018-02-23T01:03:29.731Z,7.18
2018-02-23T01:05:57.983Z,6.55
2018-02-23T01:08:25.413Z,6.60
2018-02-23T01:10:52.852Z,6.65
2018-02-23T01:13:20.297Z,6.12
2018-02-23T01:15:48.510Z,5.35
2018-02-23T01:18:15.957Z,5.90
2018-02-23T01:20:43.396Z,6.37
2018-02-23T01:23:11.612Z,7.40
2018-02-23T01:25:39.172Z,6.90
2018-02-23T01:28:06.596Z,7.03
2018-02-23T01:30:34.801Z,6.93
2018-02-23T01:33:02.252Z,5.65
2018-02-23T01:35:29.693Z,5.20
2018-02-23T01:37:57.148Z,5.18
2018-02-23T01:40:24.597Z,5.90
2018-02-23T01:42:52.054Z,5.85
2018-02-23T01:45:19.497Z,7.25
2018-02-23T01:47:46.952Z,7.00
2018-02-23T01:50:14.396Z,6.15
2018-02-23T01:52:41.852Z,6.25
2018-02-23T01:55:09.308Z,6.55
2018-02-23T01:57:37.537Z,6.07
2018-02-23T02:00:04.975Z,6.50
2018-02-23T02:02:32.417Z,7.00
2018-02-23T02:04:59.861Z,6.70
2018-02-23T02:07:28.068Z,6.85
2018-02-23T02:09:55.516Z,6.45
2018-02-23T02:12:23.720Z,7.53
2018-02-23T02:14:51.182Z,6.40
2018-02-23T02:17:18.620Z,5.60
2018-02-23T02:19:46.838Z,6.12
2018-02-23T02:22:14.273Z,7.15
2018-02-23T02:24:41.747Z,6.22
2018-02-23T02:27:09.175Z,5.93
2018-02-23T02:29:37.386Z,7.20
2018-02-23T02:32:04.823Z,7.85
2018-02-23T02:34:33.031Z,6.25
2018-02-23T02:37:00.489Z,7.00
2018-02-23T02:39:27.929Z,6.35
2018-02-23T02:41:56.139Z,6.20
2018-02-23T02:44:23.581Z,6.07
2018-02-23T02:46:51.031Z,5.97
2018-02-23T02:49:19.253Z,6.12
2018-02-23T02:51:46.688Z,5.93
2018-02-23T02:54:14.165Z,5.28
2018-02-23T02:56:41.613Z,5.40
2018-02-23T02:59:09.057Z,5.12
2018-02-23T03:01:37.257Z,5.12
2018-02-23T03:04:04.714Z,5.15
2018-02-23T03:06:32.176Z,4.90
2018-02-23T03:08:59.624Z,5.30
2018-02-23T03:11:27.829Z,4.50
2018-02-23T03:13:55.264Z,5.12
2018-02-23T03:16:23.488Z,6.55
2018-02-23T03:18:50.936Z,5.72
2018-02-23T03:21:18.392Z,4.95
2018-02-23T03:23:45.840Z,6.00
2018-02-23T03:26:14.144Z,5.35
2018-02-23T03:28:41.581Z,5.40
2018-02-23T03:31:09.788Z,4.30
2018-02-23T03:33:37.224Z,5.30
2018-02-23T03:36:04.666Z,4.87
2018-02-23T03:38:32.123Z,5.20
2018-02-23T03:40:59.577Z,5.10
2018-02-23T03:43:27.021Z,5.70
2018-02-23T03:45:54.462Z,5.22
2018-02-23T03:48:21.924Z,5.28
2018-02-23T03:50:49.365Z,5.22
2018-02-23T03:53:16.808Z,5.72
2018-02-23T03:55:45.046Z,5.55
2018-02-23T03:58:12.486Z,5.75
2018-02-23T04:00:39.925Z,5.78
2018-02-23T04:03:07.366Z,4.87
2018-02-23T04:05:34.801Z,5.22
2018-02-23T04:08:02.230Z,4.93
2018-02-23T04:10:29.674Z,5.45
2018-02-23T04:12:57.105Z,5.30
2018-02-23T04:15:24.553Z,4.45
2018-02-23T04:17:51.997Z,5.37
2018-02-23T04:20:19.437Z,4.87
2018-02-23T04:22:46.873Z,5.70
2018-02-23T04:25:15.082Z,5.75
2018-02-23T04:27:42.518Z,5.40
2018-02-23T04:30:10.725Z,5.78
2018-02-23T04:32:38.158Z,5.95
2018-02-23T04:35:06.384Z,5.43
2018-02-23T04:37:33.826Z,5.18
2018-02-23T04:40:01.657Z,5.62
2018-02-23T04:42:29.081Z,6.10
2018-02-23T04:44:56.534Z,5.18
2018-02-23T04:47:23.980Z,6.45
2018-02-23T04:49:51.425Z,6.22
2018-02-23T04:52:18.868Z,6.80
2018-02-23T04:54:47.077Z,6.07
2018-02-23T04:57:14.544Z,7.05
2018-02-23T04:59:41.988Z,6.15
2018-02-23T05:02:10.191Z,5.75
2018-02-23T05:04:37.639Z,6.28
2018-02-23T05:07:05.081Z,6.15
2018-02-23T05:09:33.298Z,6.57
2018-02-23T05:12:00.759Z,6.90
2018-02-23T05:14:28.207Z,6.60
2018-02-23T05:16:55.672Z,6.87
2018-02-23T05:19:23.118Z,6.00
2018-02-23T05:21:51.343Z,6.37
2018-02-23T05:24:18.789Z,5.97
2018-02-23T05:26:46.243Z,6.32
2018-02-23T05:29:13.678Z,6.47
2018-02-23T05:31:41.898Z,6.28
2018-02-23T05:34:09.337Z,6.50
2018-02-23T05:36:36.788Z,7.45
2018-02-23T05:39:04.999Z,8.98
2018-02-23T05:41:32.462Z,7.07
2018-02-23T05:43:59.906Z,6.57
2018-02-23T05:46:27.366Z,6.90
2018-02-23T05:48:54.810Z,6.40
2018-02-23T05:51:23.031Z,8.15
2018-02-23T05:53:50.505Z,10.45
2018-02-23T05:56:17.950Z,9.30
2018-02-23T05:58:45.407Z,9.95
2018-02-23T06:01:12.883Z,8.50
2018-02-23T06:03:40.325Z,7.85
2018-02-23T06:06:07.772Z,8.32
2018-02-23T06:08:35.226Z,7.43
2018-02-23T06:11:03.460Z,6.47
2018-02-23T06:13:30.931Z,7.65
2018-02-23T06:16:04.874Z,7.05
2018-02-23T06:18:38.140Z,7.12
2018-02-23T06:21:05.601Z,7.25
2018-02-23T06:23:33.044Z,6.45
2018-02-23T06:26:00.480Z,5.93
2018-02-23T06:28:27.947Z,6.05
2018-02-23T06:30:55.413Z,7.07
2018-02-23T06:33:22.862Z,9.50
2018-02-23T06:35:50.318Z,8.93
2018-02-23T06:38:19.474Z,11.10
2018-02-23T06:40:46.957Z,9.30
2018-02-23T06:43:14.427Z,10.10
2018-02-23T06:45:42.638Z,10.88
2018-02-23T06:48:10.104Z,9.30
2018-02-23T06:50:38.294Z,8.90
2018-02-23T06:53:05.760Z,7.85
2018-02-23T06:55:33.218Z,11.80
2018-02-23T06:58:00.649Z,11.18
2018-02-23T07:00:28.856Z,9.77
2018-02-23T07:02:56.342Z,14.73
2018-02-23T07:05:23.798Z,10.50
2018-02-23T07:07:51.254Z,13.05
2018-02-23T07:10:18.684Z,9.20
2018-02-23T07:12:46.131Z,8.25
2018-02-23T07:15:14.581Z,8.88
2018-02-23T07:17:42.238Z,8.50
2018-02-23T07:20:09.816Z,9.45
2018-02-23T07:22:37.471Z,8.90
2018-02-23T07:25:05.043Z,8.70
2018-02-23T07:27:32.584Z,7.70
2018-02-23T07:30:00.297Z,8.77
2018-02-23T07:32:28.726Z,8.23
2018-02-23T07:34:56.362Z,8.77
2018-02-23T07:37:23.979Z,9.85
2018-02-23T07:39:51.590Z,9.63
2018-02-23T07:42:19.201Z,9.02
2018-02-23T07:44:46.826Z,8.77
2018-02-23T07:47:15.120Z,6.12
2018-02-23T07:49:42.731Z,5.00
2018-02-23T07:52:10.280Z,4.70
2018-02-23T07:54:37.958Z,4.22
2018-02-23T07:57:05.575Z,4.07
2018-02-23T07:59:33.854Z,4.20
2018-02-23T08:02:02.236Z,3.60
2018-02-23T08:04:29.902Z,4.62
2018-02-23T08:06:58.249Z,3.28
2018-02-23T08:09:25.735Z,3.65
2018-02-23T08:11:54.049Z,4.55
2018-02-23T08:14:21.515Z,3.67
2018-02-23T08:16:48.958Z,3.85
2018-02-23T08:19:17.188Z,4.47
2018-02-23T08:21:44.623Z,4.85
2018-02-23T08:24:12.064Z,3.50
2018-02-23T08:26:40.274Z,2.75
2018-02-23T08:29:07.713Z,3.30
2018-02-23T08:31:35.149Z,3.60
2018-02-23T08:34:02.606Z,3.92
2018-02-23T08:36:30.061Z,3.30
2018-02-23T08:38:57.502Z,3.12
2018-02-23T08:41:24.944Z,3.15
2018-02-23T08:43:52.398Z,3.45
2018-02-23T08:46:19.846Z,4.07
2018-02-23T08:48:48.047Z,3.05
2018-02-23T08:51:15.480Z,3.90
2018-02-23T08:53:43.707Z,4.25
2018-02-23T08:56:11.154Z,3.25
2018-02-23T08:58:38.619Z,4.00
2018-02-23T09:01:06.049Z,3.50
2018-02-23T09:03:34.256Z,4.55
2018-02-23T09:06:01.701Z,3.55
2018-02-23T09:08:29.169Z,3.92
2018-02-23T09:10:56.600Z,3.80
2018-02-23T09:13:24.808Z,4.10
2018-02-23T09:15:52.248Z,3.50
2018-02-23T09:18:20.462Z,3.50
2018-02-23T09:20:47.921Z,3.28
2018-02-23T09:23:15.344Z,3.90
2018-02-23T09:25:43.582Z,4.22
2018-02-23T09:28:11.013Z,4.07
2018-02-23T09:30:38.475Z,4.32
2018-02-23T09:33:05.908Z,3.92
2018-02-23T09:35:34.120Z,4.20
2018-02-23T09:38:01.573Z,3.90
2018-02-23T09:40:29.014Z,4.55
2018-02-23T09:42:57.223Z,4.18
2018-02-23T09:45:24.658Z,4.20
2018-02-23T09:47:52.878Z,3.83
2018-02-23T09:50:20.313Z,3.17
2018-02-23T09:52:47.758Z,3.80
2018-02-23T09:55:15.989Z,4.07
2018-02-23T09:57:43.422Z,3.65
2018-02-23T10:00:10.861Z,4.03
2018-02-23T10:02:39.085Z,3.85
2018-02-23T10:05:06.550Z,4.30
2018-02-23T10:07:33.985Z,4.00
2018-02-23T10:10:01.428Z,4.43
2018-02-23T10:12:29.638Z,3.85
2018-02-23T10:14:57.082Z,3.55
2018-02-23T10:17:25.294Z,3.92
2018-02-23T10:19:52.737Z,3.72
2018-02-23T10:22:20.179Z,4.20
2018-02-23T10:24:48.397Z,4.50
2018-02-23T10:27:15.838Z,3.85
2018-02-23T10:29:43.276Z,4.05
2018-02-23T10:32:11.477Z,3.67
2018-02-23T10:34:38.921Z,4.47
2018-02-23T10:37:07.117Z,4.80
2018-02-23T10:39:34.549Z,4.30
2018-02-23T10:42:01.993Z,4.90
2018-02-23T10:44:29.429Z,4.30
2018-02-23T10:46:56.893Z,4.50
2018-02-23T10:49:24.331Z,4.57
2018-02-23T10:51:51.787Z,4.67
2018-02-23T10:54:20.016Z,4.67
2018-02-23T10:56:47.454Z,3.97
2018-02-23T10:59:14.888Z,4.13
2018-02-23T11:01:43.107Z,5.87
2018-02-23T11:04:10.543Z,4.77
2018-02-23T11:06:37.988Z,4.90
2018-02-23T11:09:06.198Z,4.53
2018-02-23T11:11:33.641Z,4.87
2018-02-23T11:14:01.854Z,4.83
2018-02-23T11:16:29.299Z,4.40
2018-02-23T11:18:56.728Z,4.63
2018-02-23T11:21:24.928Z,5.33
2018-02-23T11:23:52.348Z,3.87
2018-02-23T11:26:19.815Z,5.23
2018-02-23T11:28:47.252Z,4.40
2018-02-23T11:31:14.704Z,3.90
2018-02-23T11:33:42.134Z,4.80
2018-02-23T11:36:09.583Z,5.00
2018-02-23T11:38:37.781Z,4.93
2018-02-23T11:41:05.265Z,5.20
2018-02-23T11:43:33.433Z,4.83
2018-02-23T11:46:00.875Z,5.10
2018-02-23T11:48:29.065Z,5.10
2018-02-23T11:50:56.514Z,4.40
2018-02-23T11:53:24.700Z,4.87
2018-02-23T11:55:52.136Z,5.50
2018-02-23T11:58:19.574Z,5.70
2018-02-23T12:00:47.018Z,5.00
2018-02-23T12:03:14.463Z,5.70
2018-02-23T12:05:41.891Z,6.77
2018-02-23T12:08:10.099Z,5.73
2018-02-23T12:10:37.544Z,6.13
2018-02-23T12:13:05.760Z,6.10
2018-02-23T12:15:33.199Z,6.47
2018-02-23T12:18:00.641Z,5.53
2018-02-23T12:20:28.836Z,6.43
2018-02-23T12:22:56.295Z,5.60
2018-02-23T12:25:23.729Z,5.13
2018-02-23T12:27:51.168Z,5.13
2018-02-23T12:30:18.602Z,5.63
2018-02-23T12:32:46.046Z,6.20
2018-02-23T12:35:13.494Z,6.40
2018-02-23T12:37:41.716Z,6.30
2018-02-23T12:40:09.162Z,5.80
2018-02-23T12:42:36.601Z,6.83
2018-02-23T12:45:04.805Z,6.50
2018-02-23T12:47:32.236Z,5.23
2018-02-23T12:50:00.428Z,7.30
2018-02-23T12:52:27.882Z,7.27
2018-02-23T12:54:56.074Z,6.20
2018-02-23T12:57:23.528Z,6.27
2018-02-23T12:59:51.730Z,8.00
2018-02-23T13:02:19.169Z,6.70
2018-02-23T13:04:46.627Z,8.00
2018-02-23T13:07:14.830Z,6.67
2018-02-23T13:09:42.293Z,7.47
2018-02-23T13:12:09.788Z,7.27
2018-02-23T13:14:42.856Z,6.23
2018-02-23T13:17:10.284Z,7.10
2018-02-23T13:19:37.731Z,6.67
2018-02-23T13:22:05.153Z,7.40
2018-02-23T13:24:32.593Z,7.40
2018-02-23T13:27:05.725Z,8.00
2018-02-23T13:29:33.179Z,6.60
2018-02-23T13:32:00.631Z,6.50
2018-02-23T13:34:28.067Z,7.07
2018-02-23T13:36:55.506Z,6.97
2018-02-23T13:39:23.714Z,6.10
2018-02-23T13:41:51.176Z,6.73
2018-02-23T13:44:18.624Z,7.27
2018-02-23T13:46:46.068Z,6.53
2018-02-23T13:49:14.284Z,7.43
2018-02-23T13:51:41.728Z,8.33
2018-02-23T13:54:14.845Z,6.60
2018-02-23T13:56:42.296Z,6.90
2018-02-23T13:59:09.740Z,6.80
2018-02-23T14:01:37.186Z,7.00
2018-02-23T14:04:05.411Z,6.50
2018-02-23T14:06:32.865Z,6.20
2018-02-23T14:09:00.327Z,6.30
2018-02-23T14:11:27.754Z,7.17
2018-02-23T14:13:55.972Z,6.30
2018-02-23T14:16:23.413Z,7.37
2018-02-23T14:18:50.876Z,6.53
2018-02-23T14:21:18.322Z,6.93
2018-02-23T14:23:46.534Z,6.07
2018-02-23T14:26:13.961Z,6.10
2018-02-23T14:28:42.165Z,6.23
2018-02-23T14:31:09.589Z,7.20
2018-02-23T14:33:37.048Z,6.40
2018-02-23T14:36:04.491Z,5.90
2018-02-23T14:38:31.955Z,6.97
2018-02-23T14:40:59.402Z,5.97
2018-02-23T14:43:26.884Z,7.20
2018-02-23T14:45:54.264Z,6.23
2018-02-23T14:48:34.267Z,5.50
2018-02-23T14:51:10.723Z,7.30
2018-02-23T14:53:38.165Z,5.90
2018-02-23T14:56:05.595Z,6.10
2018-02-23T14:58:33.054Z,6.07
2018-02-23T15:01:00.509Z,6.10
2018-02-23T15:03:27.955Z,6.30
2018-02-23T15:05:56.161Z,6.10
2018-02-23T15:08:23.625Z,6.77
2018-02-23T15:10:51.058Z,5.93
2018-02-23T15:13:18.512Z,5.90
2018-02-23T15:15:45.955Z,6.57
2018-02-23T15:18:14.320Z,6.50
2018-02-23T15:20:42.527Z,6.40
2018-02-23T15:23:09.979Z,5.70
2018-02-23T15:25:37.423Z,6.83
2018-02-23T15:28:05.626Z,6.30
2018-02-23T15:30:44.959Z,5.00
2018-02-23T15:33:12.395Z,6.47
2018-02-23T15:35:40.610Z,6.37
2018-02-23T15:38:08.064Z,5.87
2018-02-23T15:40:35.497Z,6.30
2018-02-23T15:43:03.710Z,6.77
2018-02-23T15:45:31.169Z,6.17
2018-02-23T15:47:59.421Z,5.87
2018-02-23T15:53:32.033Z,5.40
2018-02-23T15:55:59.472Z,5.47
2018-02-23T15:58:45.282Z,5.30
2018-02-23T16:01:12.701Z,5.60
2018-02-23T16:03:40.896Z,5.87
2018-02-23T16:06:08.359Z,5.57
2018-02-23T16:08:36.564Z,5.20
2018-02-23T16:11:04.007Z,5.00
2018-02-23T16:13:31.450Z,5.87
2018-02-23T16:16:06.555Z,4.43
2018-02-23T16:18:35.486Z,5.27
2018-02-23T16:21:05.069Z,5.50
2018-02-23T16:23:32.536Z,5.27
2018-02-23T16:26:08.052Z,4.87
2018-02-23T16:28:38.602Z,5.00
2018-02-23T16:31:09.618Z,4.90
2018-02-23T16:33:40.596Z,5.10
2018-02-23T16:36:14.928Z,5.30
2018-02-23T16:39:01.699Z,5.30
2018-02-23T16:41:37.092Z,6.30
2018-02-23T16:44:08.617Z,4.60
2018-02-23T16:46:40.640Z,4.93
2018-02-23T16:49:13.952Z,5.20
2018-02-23T16:51:41.372Z,6.40
2018-02-23T16:54:09.593Z,6.00
2018-02-23T16:56:37.036Z,6.00
2018-02-23T16:59:04.465Z,5.17
2018-02-23T17:01:32.682Z,5.97
2018-02-23T17:04:00.109Z,6.80
2018-02-23T17:06:28.319Z,7.03
2018-02-23T17:08:55.740Z,5.73
2018-02-23T17:11:23.960Z,5.73
2018-02-23T17:13:51.380Z,5.83
2018-02-23T17:16:19.610Z,5.30
2018-02-23T17:18:47.045Z,6.07
2018-02-23T17:21:14.480Z,6.10
2018-02-23T17:23:41.928Z,5.10
2018-02-23T17:26:09.376Z,5.63
2018-02-23T17:28:36.811Z,5.30
2018-02-23T17:31:04.248Z,6.03
2018-02-23T17:33:32.459Z,6.37
2018-02-23T17:35:59.897Z,5.40
2018-02-23T17:38:28.198Z,5.73
2018-02-23T17:40:55.620Z,6.87
2018-02-23T17:43:23.840Z,5.77
2018-02-23T17:45:51.268Z,6.47
2018-02-23T17:48:19.470Z,4.87
2018-02-23T17:50:46.918Z,6.90
2018-02-23T17:53:15.120Z,4.30
2018-02-23T17:55:42.581Z,4.90
2018-02-23T17:58:10.003Z,6.53
2018-02-23T18:00:38.200Z,5.30
2018-02-23T18:03:05.643Z,4.80
2018-02-23T18:05:33.854Z,6.27
2018-02-23T18:08:01.284Z,5.13
2018-02-23T18:10:29.505Z,5.33
2018-02-23T18:12:56.950Z,6.40
2018-02-23T18:15:24.385Z,4.00
2018-02-23T18:17:52.592Z,5.90
2018-02-23T18:20:20.071Z,6.13
2018-02-23T18:22:47.537Z,5.00
2018-02-23T18:25:14.958Z,5.28
2018-02-23T18:27:43.161Z,5.60
2018-02-23T18:30:10.605Z,4.30
2018-02-23T18:32:38.072Z,5.80
2018-02-23T18:35:06.270Z,6.47
2018-02-23T18:37:33.722Z,5.68
2018-02-23T18:40:01.152Z,6.90
2018-02-23T18:42:28.592Z,7.00
2018-02-23T18:44:56.032Z,6.78
2018-02-23T18:47:23.491Z,5.90
2018-02-23T18:49:50.928Z,7.23
2018-02-23T18:52:18.372Z,7.37
2018-02-23T18:54:46.583Z,5.83
2018-02-23T18:57:14.013Z,6.17
2018-02-23T18:59:42.222Z,6.63
2018-02-23T19:02:09.694Z,8.00
2018-02-23T19:04:37.124Z,7.05
2018-02-23T19:07:05.336Z,6.77
2018-02-23T19:09:32.777Z,8.50
2018-02-23T19:12:00.239Z,7.67
2018-02-23T19:14:27.692Z,6.30
2018-02-23T19:16:55.904Z,6.90
2018-02-23T19:19:23.325Z,7.20
2018-02-23T19:21:51.557Z,6.33
2018-02-23T19:24:18.971Z,6.60
2018-02-23T19:26:47.194Z,5.30
2018-02-23T19:29:14.647Z,6.53
2018-02-23T19:31:42.080Z,5.20
2018-02-23T19:34:10.285Z,5.80
2018-02-23T19:36:37.750Z,4.93
2018-02-23T19:39:05.180Z,4.62
2018-02-23T19:41:33.393Z,5.20
2018-02-23T19:44:00.841Z,6.07
2018-02-23T19:46:28.292Z,5.30
2018-02-23T19:48:55.753Z,5.93
2018-02-23T19:51:23.963Z,6.45
2018-02-23T19:53:51.427Z,6.30
2018-02-23T19:56:18.886Z,6.37
2018-02-23T19:58:46.324Z,5.05
2018-02-23T20:01:13.766Z,5.53
2018-02-23T20:03:41.983Z,3.62
2018-02-23T20:06:09.413Z,5.28
2018-02-23T20:08:37.638Z,5.20
2018-02-23T20:11:05.074Z,4.80
2018-02-23T20:13:32.531Z,4.12
2018-02-23T20:15:59.971Z,4.90
2018-02-23T20:18:28.177Z,4.10
2018-02-23T20:20:55.663Z,3.92
2018-02-23T20:23:23.821Z,4.68
2018-02-23T20:25:51.262Z,4.50
2018-02-23T20:28:19.461Z,5.07
2018-02-23T20:30:46.907Z,4.37
2018-02-23T20:33:15.128Z,4.23
2018-02-23T20:35:42.559Z,4.70
2018-02-23T20:38:10.019Z,5.28
2018-02-23T20:40:37.450Z,5.80
2018-02-23T20:43:04.894Z,5.28
2018-02-23T20:45:32.390Z,4.40
2018-02-23T20:47:59.791Z,4.55
2018-02-23T20:50:27.243Z,4.62
2018-02-23T20:52:54.698Z,4.95
2018-02-23T20:55:22.133Z,4.43
2018-02-23T20:57:49.587Z,4.63
2018-02-23T21:00:17.030Z,4.55
2018-02-23T21:02:45.233Z,5.07
2018-02-23T21:05:12.675Z,5.10
2018-02-23T21:07:40.117Z,5.27
2018-02-23T21:10:07.590Z,5.97
2018-02-23T21:12:43.280Z,5.37
2018-02-23T21:15:21.985Z,5.93
2018-02-23T21:18:03.112Z,5.22
2018-02-23T21:20:56.377Z,6.30
2018-02-23T21:23:23.813Z,5.97
2018-02-23T21:25:51.245Z,6.82
2018-02-23T21:28:18.852Z,7.87
2018-02-23T21:30:46.409Z,7.00
2018-02-23T21:33:13.924Z,7.83
2018-02-23T21:35:41.420Z,7.87
2018-02-23T21:38:09.049Z,7.60
2018-02-23T21:40:36.621Z,7.20
2018-02-23T21:43:04.244Z,6.65
2018-02-23T21:45:32.624Z,7.30
2018-02-23T21:48:00.885Z,8.10
2018-02-23T21:50:28.380Z,7.57
2018-02-23T21:52:55.855Z,7.22
2018-02-23T21:55:23.375Z,7.93
2018-02-23T21:57:51.619Z,6.90
2018-02-23T22:00:19.149Z,7.80
2018-02-23T22:02:46.706Z,7.65
2018-02-23T22:05:14.286Z,9.48
2018-02-23T22:07:41.780Z,8.70
2018-02-23T22:10:09.395Z,8.60
2018-02-23T22:12:37.758Z,8.60
2018-02-23T22:15:05.379Z,9.20
2018-02-23T22:17:32.913Z,10.45
2018-02-23T22:20:00.481Z,9.98
2018-02-23T22:22:28.050Z,9.98
2018-02-23T22:24:55.641Z,9.18
2018-02-23T22:27:23.929Z,9.35
2018-02-23T22:29:51.507Z,10.02
2018-02-23T22:32:19.039Z,10.05
2018-02-23T22:34:47.465Z,9.98
2018-02-23T22:37:15.117Z,9.20
2018-02-23T22:39:42.655Z,10.45
2018-02-23T22:42:10.805Z,10.07
2018-02-23T22:44:39.170Z,10.45
2018-02-23T22:47:06.709Z,10.40
2018-02-23T22:49:34.280Z,11.15
2018-02-23T22:52:01.747Z,9.50
2018-02-23T22:54:29.339Z,10.68
2018-02-23T22:56:56.932Z,10.57
2018-02-23T22:59:24.591Z,11.38
2018-02-23T23:01:52.104Z,10.45
2018-02-23T23:04:20.462Z,12.02
2018-02-23T23:06:47.932Z,10.30
2018-02-23T23:09:15.439Z,10.30
2018-02-23T23:11:42.882Z,11.45
2018-02-23T23:14:10.310Z,11.32
2018-02-23T23:16:37.808Z,9.13
2018-02-23T23:19:05.255Z,10.85
2018-02-23T23:21:32.690Z,9.32
2018-02-23T23:24:00.139Z,10.82
2018-02-23T23:26:28.348Z,10.40
2018-02-23T23:28:55.775Z,10.38
2018-02-23T23:31:23.228Z,10.27
2018-02-23T23:33:51.437Z,11.20
2018-02-23T23:36:18.897Z,10.65
2018-02-23T23:38:46.355Z,10.20
2018-02-23T23:41:13.821Z,9.07
2018-02-23T23:43:41.328Z,10.63
2018-02-23T23:46:09.554Z,9.80
2018-02-23T23:48:37.224Z,10.45
2018-02-23T23:51:04.660Z,9.85
2018-02-23T23:53:32.127Z,11.45
2018-02-23T23:55:59.578Z,10.30
2018-02-23T23:58:27.011Z,8.93
